ADDS METAR Data INFO
IDs: Format: Raw Decoded Include TAF

Data at: 2252 UTC 16 Jan 2018

PAKV 162210Z AUTO 00000KT 10SM FEW007 SCT020 M13/M14 A2953 RMK AO2 UPB2154E10 P0000 T11281144 TSNO
PAKV 162153Z AUTO 00000KT 10SM FEW007 BKN020 M12/M13 A2954 RMK AO2 UPE53 SLP007 P0000 T11221133 TSNO
PAKV 162117Z AUTO 00000KT 10SM UP BKN019 M14/M16 A2955 RMK AO2 P0000 T11441161 TSNO
PAKV 162053Z AUTO 00000KT 10SM UP CLR M16/M17 A2956 RMK AO2 SLP015 P0000 60000 T11561172 58008 TSNO
PAKV 161953Z AUTO 00000KT 10SM UP FEW008 M15/M16 A2958 RMK AO2 SLP021 P0000 T11501161 TSNO
PAKV 161931Z AUTO 00000KT 10SM UP SCT008 M14/M16 A2958 RMK AO2 P0000 T11441161 TSNO
PAKV 161853Z AUTO 06004KT 10SM UP CLR M11/M12 A2959 RMK AO2 UPB04E17B44 SLP024 P0000 T11061122 TSNO
PAKV 161753Z AUTO 00000KT 10SM CLR M11/M12 A2958 RMK AO2 UPE07 SLP022 P0000 60000 T11111122 11044 21117 58012 TSNO
PAKV 161707Z AUTO 09003KT 10SM SCT016 M08/M09 A2959 RMK AO2 UPE07 P0000 T10781089 TSNO
PAKV 161653Z AUTO 10004KT 10SM UP BKN016 M08/M09 A2960 RMK AO2 UPB1554E08B23 SLP027 P0000 T10781089 TSNO
PAKV 161616Z AUTO 00000KT 10SM BKN016 M08/M09 A2961 RMK AO2 UPB1554E08 P0000 T10781089 TSNO
PAKV 161553Z AUTO 00000KT 10SM CLR M07/M08 A2961 RMK AO2 UPE1457B28E38 SLP032 P0000 T10721083 TSNO
PAKV 161453Z AUTO 06005KT 10SM UP CLR M06/M08 A2962 RMK AO2 SLP034 P0000 60000 T10611078 58008 TSNO
PAKV 161353Z AUTO 22003KT 10SM UP OVC050 M06/M07 A2963 RMK AO2 UPB38 SLP037 P0000 T10561067 TSNO
PAKV 161253Z AUTO 00000KT 10SM FEW029 OVC050 M04/M07 A2964 RMK AO2 UPB16E25 SLP042 P0000 T10441067 TSNO
PAKV 161153Z AUTO 06003KT 10SM OVC048 M05/M07 A2964 RMK AO2 UPB23E43 SLP043 P0000 60000 T10501067 11039 21056 53005 TSNO
PAKV 161053Z AUTO 00000KT 10SM SCT022 OVC047 M04/M06 A2963 RMK AO2 UPB03E30 SLP039 P0000 T10441061 TSNO
PAKV 161018Z AUTO 00000KT 10SM UP FEW015 SCT022 OVC043 M04/M06 A2963 RMK AO2 UPB03 P0000 T10441056 TSNO
PAKV 160953Z AUTO 00000KT 10SM FEW016 BKN023 OVC039 M04/M06 A2962 RMK AO2 UPB01E43SNE01 SLP035 P0000 T10441056 TSNO
PAKV 160853Z AUTO 00000KT 4SM -SN BR OVC020 M04/M06 A2963 RMK AO2 UPE02B24E41SNB41 SLP037 P0000 60000 T10441056 410221056 51009 TSNO
PAKV 160753Z AUTO 00000KT 4SM UP BR OVC020 M05/M06 A2962 RMK AO2 UPE0656B46SNB0656E46 SLP035 P0000 T10501056 TSNO
PAKV 160745Z AUTO 00000KT 3SM -SN BR OVC020 M05/M06 A2962 RMK AO2 UPE0656SNB0656 P0000 T10501056 TSNO
PAKV 160730Z AUTO 00000KT 2 1/2SM -SN BR OVC022 M04/M06 A2961 RMK AO2 UPE0656SNB0656 P0000 T10441056 TSNO
PAKV 160705Z AUTO 00000KT 1 3/4SM -SN BR OVC023 M04/M05 A2961 RMK AO2 UPE0656SNB0656 P0000 T10391050 TSNO
PAKV 160653Z AUTO 00000KT 3SM UP BR OVC023 M04/M05 A2961 RMK AO2 UPE03B20E30B47SNB03E20B30E47 SLP030 P0000 T10391050 TSNO
PAKV 160626Z AUTO 00000KT 2 1/2SM UP BR BKN024 OVC029 M04/M05 A2961 RMK AO2 UPE03B20SNB03E20 P0000 T10391050 TSNO
PAKV 160612Z AUTO 03003KT 1 3/4SM -SN BR OVC024 M04/M05 A2960 RMK AO2 UPE03SNB03 P0000 T10391050 TSNO
PAKV 160553Z AUTO 00000KT 9SM UP OVC022 M04/M05 A2960 RMK AO2 UPE0456B21SNB27E40 SLP027 P0000 60000 T10391050 11033 21039 52019 TSNO
PAKV 160540Z AUTO 00000KT 2 1/2SM UP BR OVC023 M04/M05 A2960 RMK AO2 UPE0456B21SNB27E40 P0000 T10391050 TSNO
PAKV 160453Z AUTO 00000KT 5SM UP BR OVC023 M04/M04 A2958 RMK AO2 UPE0358B16SNB0358E16 SLP020 P0000 T10391044 TSNO
PAKV 160417Z AUTO 00000KT 5SM UP BR OVC023 M04/M05 A2957 RMK AO2 UPE0358B16SNB0358E16 P0000 T10391050 TSNO
PAKV 160408Z AUTO 00000KT 2 1/2SM -SN BR OVC023 M04/M04 A2957 RMK AO2 UPE0358SNB0358 P0000 T10391044 TSNO
PAKV 160353Z AUTO 00000KT 6SM UP BR OVC021 M04/M05 A2956 RMK AO2 UPB00SNE00 SLP015 P0000 T10391050 TSNO
PAKV 160253Z AUTO 03003KT 4SM -SN BR OVC020 M04/M05 A2954 RMK AO2 UPE13SNB13 SLP008 P0000 60000 T10391050 53008 TSNO
PAKV 160153Z AUTO 03003KT 6SM UP BR OVC020 M04/M05 A2953 RMK AO2 UPB39SNE39 SLP004 P0000 T10391050 TSNO
PAKV 160123Z AUTO 04003KT 3SM -SN BR OVC020 M04/M06 A2953 RMK AO2 P0000 T10391056 TSNO
PAKV 160110Z AUTO 00000KT 1 1/2SM -SN BR BKN020 OVC027 M04/M06 A2953 RMK AO2 P0000 T10391056 TSNO
PAKV 160053Z AUTO 00000KT 2 1/2SM -SN BR SCT020 OVC035 M04/M06 A2952 RMK AO2 UPB2358E26SNB26 SLP001 P0000 T10391056 TSNO
PAKV 160048Z AUTO 00000KT 2SM -SN FEW020 OVC034 M03/M06 A2952 RMK AO2 UPB2358E26SNB26 P0000 TSNO
PAKV 160005Z AUTO 00000KT 10SM UP FEW026 OVC033 M03/M07 A2951 RMK AO2 UPB2358 P0000 T10331067 TSNO
PAKV 152353Z AUTO 00000KT 10SM BKN026 OVC033 M03/M07 A2950 RMK AO2 UPB25E43SNB10E25 SLP994 P0000 60000 T10331067 11028 21033 51022 TSNO
PAKV 152253Z AUTO 00000KT 10SM BKN038 OVC048 M03/M07 A2949 RMK AO2 UPE53SNB24E38 SLP988 P0000 T10331067 TSNO
PAKV 152153Z AUTO 00000KT 10SM UP BKN030 OVC041 M03/M07 A2946 RMK AO2 UPB05 SLP979 P0000 T10331072 TSNO
PAKV 152053Z AUTO 00000KT 10SM BKN030 BKN038 OVC044 M03/M07 A2944 RMK AO2 SLP971 60000 T10331072 53022 TSNO
PAKV 152037Z AUTO 00000KT 10SM SCT022 SCT031 OVC044 M03/M07 A2943 RMK AO2 T10331072 TSNO
PAKV 152015Z AUTO 06004KT 10SM BKN021 BKN036 OVC045 M03/M07 A2942 RMK AO2 T10331072 TSNO
PAKV 151953Z AUTO 00000KT 10SM FEW021 SCT031 OVC042 M03/M07 A2941 RMK AO2 UPB1855E37SNE1855 SLP964 P0000 T10331072 TSNO
PAKV 151933Z AUTO 08003KT 10SM UP SCT023 BKN031 OVC042 M03/M07 A2941 RMK AO2 UPB1855SNE1855 P0000 T10331067 TSNO
PAKV 151853Z AUTO 05005KT 9SM -SN OVC023 M03/M07 A2939 RMK AO2 UPB41E46SNB26E41B46 SLP957 P0000 T10331067 TSNO
PAKV 151753Z AUTO 00000KT 10SM BKN026 OVC033 M03/M07 A2937 RMK AO2 SLP949 60000 T10281072 11022 21028 51009 TSNO
PAKV 151653Z AUTO 06006KT 10SM OVC032 M02/M07 A2935 RMK AO2 UPE20 SLP943 P0000 T10221072 TSNO
PAKV 151553Z AUTO 09005KT 10SM UP BKN030 OVC046 M02/M07 A2935 RMK AO2 UPB20 SLP941 P0000 T10221072 TSNO
PAKV 151453Z AUTO 06007KT 030V100 10SM OVC070 M02/M08 A2933 RMK AO2 UPE27 SLP936 P0000 60000 T10221078 53005 TSNO
PAKV 151353Z AUTO 06007KT 10SM UP BKN065 OVC080 M02/M08 A2932 RMK AO2 UPB16 SLP932 P0000 T10221078 TSNO
PAKV 151253Z AUTO 06008KT 10SM SCT065 OVC080 M03/M08 A2931 RMK AO2 UPB04E37 SLP929 P0000 T10281078 TSNO
PAKV 151153Z AUTO 06008KT 10SM SCT050 OVC060 M03/M08 A2932 RMK AO2 UPB11E21 SLP931 P0000 60000 T10281078 11022 21039 51015 TSNO
PAKV 151053Z AUTO 06009KT 10SM BKN050 OVC060 M03/M08 A2930 RMK AO2 SLP926 T10281083 TSNO